Flight Track Log - Related Links

Times and Time Zones

All times are in EDT time to prevent confusion due to time zone crossing. See the FLG4224 flight status page for this flight to view local times or setup timezone preferences in your user account.

Time Position Orientation Groundspeed Altitude Reporting Facility
EDT Latitude Longitude Course Direction KTS MPH feet Rate Location/Type
Tue 06:18:26 AM 44.4003 -73.2247 256° West 218 251 5,000  Level Boston Center
Tue 06:19:24 AM 44.3892 -73.3175 261° West 239 275 7,600 2,923 Climbing Boston Center
Tue 06:20:00 AM 44.3555 -73.7787 259° West  Level FlightAware Approximate
Tue 06:20:23 AM 44.3739 -73.4189 258° West 262 302 10,700  Level Boston Center
Tue 06:21:00 AM 44.3373 -73.9058 259° West  Level FlightAware Approximate
Tue 06:21:22 AM 44.3583 -73.5261 259° West 279 321 12,200  Level Boston Center
Tue 06:22:00 AM 44.3153 -74.0317 256° West  Level FlightAware Approximate
Tue 06:22:22 AM 44.3403 -73.6506 259° West 307 353 13,800  Level Boston Center
Tue 06:23:00 AM 44.2921 -74.1572 256° West  Level FlightAware Approximate
Tue 06:23:22 AM 44.3203 -73.7806 258° West 326 375 15,400  Level Boston Center
Tue 06:24:24 AM 44.3019 -73.9108 259° West 341 392 17,000 1,500 Climbing Boston Center
Tue 06:25:22 AM 44.2814 -74.0408 258° West 347 399 18,400 1,311 Climbing Boston Center
Tue 06:26:23 AM 44.2608 -74.1706 258° West 352 405 19,600 1,180 Climbing Boston Center
Tue 06:27:24 AM 44.2400 -74.3033 258° West 352 405 20,800 1,150 Climbing Boston Center
Tue 06:28:23 AM 44.2189 -74.4389 258° West 357 411 21,900 950 Climbing Boston Center
Tue 06:29:24 AM 44.1978 -74.5714 258° West 351 404 22,700 807 Climbing Boston Center
Tue 06:30:22 AM 44.1764 -74.7067 258° West 357 411 23,500 814 Climbing Boston Center
Tue 06:31:22 AM 44.1550 -74.8447 258° West 362 417 24,300 732 Climbing Boston Center
Tue 06:32:25 AM 44.1331 -74.9856 258° West 367 422 25,000 550 Climbing Boston Center
Tue 06:33:22 AM 44.1111 -75.1264 258° West 372 428 25,400 504 Climbing Boston Center
Tue 06:34:24 AM 44.0892 -75.2672 258° West 372 428 26,000 545 Climbing Boston Center
Tue 06:35:23 AM 44.0644 -75.4106 257° West 372 428 26,500 458 Climbing Boston Center
Tue 06:36:22 AM 44.0422 -75.5422 257° West 378 435 26,900 500 Climbing Boston Center
Tue 06:37:23 AM 44.0175 -75.6883 257° West 383 441 27,500 541 Climbing Boston Center
Tue 06:38:24 AM 43.9944 -75.8314 257° West 383 441 28,000 248 Climbing Boston Center
Tue 06:39:24 AM 43.9714 -75.9772 258° West 388 447 28,000  Level Boston Center
Tue 06:40:24 AM 43.9542 -76.1292 261° West 400 460 28,000  Level Boston Center
Tue 06:41:25 AM 43.9492 -76.2817 267° West 400 460 28,000  Level Boston Center
Tue 06:42:23 AM 43.9458 -76.4400 268° West 405 466 28,000  Level Boston Center
Tue 06:44:05 AM 43.9333 -76.7000 266° West 400 460 28,000  Level Toronto Center
Tue 06:45:05 AM 43.9167 -76.8500 261° West 410 472 28,000  Level Toronto Center
Tue 06:46:05 AM 43.9000 -77.0000 261° West 410 472 28,000  Level Toronto Center
Tue 06:47:05 AM 43.8833 -77.1500 261° West 410 472 28,000  Level Toronto Center
Tue 06:48:05 AM 43.8667 -77.3167 262° West 400 460 28,000  Level Toronto Center
Tue 06:49:06 AM 43.8667 -77.4667 270° West 400 460 28,000  Level Toronto Center
Tue 06:50:05 AM 43.8500 -77.6167 261° West 400 460 28,000  Level Toronto Center
Tue 06:51:05 AM 43.8333 -77.7833 262° West 400 460 28,000  Level Toronto Center
Tue 06:52:05 AM 43.8167 -77.9167 260° West 400 460 28,000  Level Toronto Center
Tue 06:53:05 AM 43.8000 -78.0833 262° West 410 472 28,000  Level Toronto Center
Tue 06:54:05 AM 43.7833 -78.2500 262° West 410 472 28,000  Level Toronto Center
Tue 06:55:05 AM 43.7667 -78.4167 262° West 410 472 28,000  Level Toronto Center
Tue 06:56:05 AM 43.7500 -78.5500 260° West 410 472 28,000  Level Toronto Center
Tue 06:57:05 AM 43.7333 -78.7167 262° West 410 472 28,000  Level Toronto Center
Tue 06:58:05 AM 43.7167 -78.8667 261° West 410 472 28,000  Level Toronto Center
Tue 06:59:05 AM 43.7000 -79.0333 262° West 410 472 28,000  Level Toronto Center
Tue 07:00:05 AM 43.6833 -79.1667 260° West 410 472 28,000  Level Toronto Center
Tue 07:01:05 AM 43.6667 -79.3333 262° West 410 472 28,000  Level Toronto Center
Tue 07:02:05 AM 43.6500 -79.5000 262° West 410 472 28,000  Level Toronto Center
Tue 07:03:05 AM 43.6333 -79.6500 261° West 420 483 28,000  Level Toronto Center
Tue 07:04:05 AM 43.6167 -79.8167 262° West 420 483 28,000  Level Toronto Center
Tue 07:05:05 AM 43.6000 -79.9500 260° West 410 472 28,000  Level Toronto Center
Tue 07:06:05 AM 43.5833 -80.1333 263° West 410 472 28,000  Level Toronto Center
Tue 07:07:05 AM 43.5667 -80.2833 261° West 410 472 28,000  Level Toronto Center
Tue 07:08:05 AM 43.5500 -80.4333 261° West 410 472 28,000  Level Toronto Center
Tue 07:09:05 AM 43.5333 -80.6000 262° West 410 472 28,000  Level Toronto Center
Tue 07:10:05 AM 43.5167 -80.7667 262° West 420 483 28,000  Level Toronto Center
Tue 07:11:05 AM 43.4833 -80.9000 251° West 410 472 28,000  Level Toronto Center
Tue 07:12:05 AM 43.4500 -81.0500 253° West 420 483 28,000  Level Toronto Center
Tue 07:13:05 AM 43.4333 -81.2167 262° West 420 483 28,000  Level Toronto Center
Tue 07:14:05 AM 43.4167 -81.3833 262° West 410 472 28,000  Level Toronto Center
Tue 07:15:05 AM 43.4000 -81.5333 261° West 420 483 28,000  Level Toronto Center
Tue 07:16:05 AM 43.3833 -81.7000 262° West 420 483 28,000  Level Toronto Center
Tue 07:17:05 AM 43.3667 -81.8500 261° West 420 483 28,000 -150 Level Toronto Center
Tue 07:18:05 AM 43.3333 -82.0167 255° West 420 483 27,700 -750 Descending Toronto Center
Tue 07:19:05 AM 43.3167 -82.1833 262° West 420 483 26,500 -1,150 Descending Toronto Center
Tue 07:20:05 AM 43.3000 -82.3167 260° West 420 483 25,400 -1,200 Descending Toronto Center
Tue 07:21:05 AM 43.2833 -82.4667 261° West 420 483 24,100 -1,200 Descending Toronto Center
Tue 07:22:05 AM 43.2667 -82.6333 262° West 420 483 23,000 -1,121 Descending Toronto Center
Tue 07:22:52 AM 43.2442 -82.7519 255° West 427 491 22,100 -1,178 Descending Cleveland Center
Tue 07:23:52 AM 43.2039 -82.9017 250° West 427 491 20,900 -1,200 Descending Cleveland Center
Tue 07:24:52 AM 43.1633 -83.0481 249° West 422 486 19,700 -1,200 Descending Cleveland Center
Tue 07:25:52 AM 43.1225 -83.1917 249° West 417 480 18,500 -1,119 Descending Cleveland Center
Tue 07:26:50 AM 43.0839 -83.3378 250° West 349 402 17,500 -1,160 Descending Cleveland Center
Tue 07:27:51 AM 43.0497 -83.4556 248° West 333 383 16,200 -1,475 Descending Cleveland Center
Tue 07:28:52 AM 43.0153 -83.5817 250° West 341 392 14,500 -1,603 Descending Cleveland Center
Tue 07:29:47 AM 42.9833 -83.6881 248° West 347 399 13,100 -1,293 Descending Cleveland Center
Tue 07:30:48 AM 42.9003 -83.7436 206° Southwest 323 372 12,000 -645 Descending Cleveland Center
Tue 07:31:48 AM 42.8114 -83.7219 170° South 307 353 11,800 -793 Descending Cleveland Center
Tue 07:32:49 AM 42.7356 -83.6758 156° South 307 353 10,400 -1,306 Descending Cleveland Center
Tue 07:33:52 AM 42.6636 -83.6356 158° South 273 314 9,100 -927 Descending Cleveland Center
Tue 07:34:52 AM 42.5964 -83.5703 144° Southeast 284 327 8,500 -850 Descending Cleveland Center
Tue 07:35:52 AM 42.5422 -83.4944 134° Southeast 284 327 7,400 -1,240 Descending Cleveland Center
Tue 07:36:53 AM 42.4947 -83.3936 123° Southeast 279 321 6,000 -1,034 Descending Cleveland Center
Tue 07:37:48 AM 42.4417 -83.3378 142° Southeast 267 307 5,400 -934 Descending Cleveland Center
Tue 07:38:55 AM 42.3739 -83.3039 160° South 207 238 4,100 -1,359 Descending Cleveland Center
Tue 07:39:56 AM 42.3194 -83.3100 185° South 183 211 2,500 -1,082 Descending Cleveland Center
Tue 07:40:57 AM 42.2772 -83.3306 200° South 139 160 1,900 -672 Descending Cleveland Center
Tue 07:41:52 AM 42.2456 -83.3544 209° Southwest 137 158 1,200 -764 Descending Cleveland Center

Login

Don't have an account? Register now (free) for customized features, flight alerts, and more!